Kynouria — V7VY6 — position and weather

sailwx.info

Track history (hours):
 
Tides and Currents Weather Stations Pressure Air Temp Water Temp Dewpoint Dewpoint Depression Visibility Wind Speed Wind Dir Waves Ship Positions

Kynouria

Last reported at 2014-Aug-28 23:29 UTC. Time now 2014-Sep-23 04:17 UTC.
Position S 34°36' E 017°56'.
Warning: this ship's position is 25 days out of date.

Length 229 m; draft 9 m.

Type: Cargo ship. MMSI: 538004243.

Date/timePositionNaut miles runAvg speedWind from/ knotsBaromVisibWave heightAir tempDewpointWater temp
2014-Aug-28 23:29S 34°36' E 017°56'15 7.4
2014-Aug-28 21:28S 34°38' E 018°14'6 7.0
2014-Aug-28 20:33S 34°39' E 018°22'8 7.2
2014-Aug-28 19:30S 34°40' E 018°31'7 7.0
2014-Aug-28 18:30S 34°41' E 018°39'7 7.2
2014-Aug-28 17:33S 34°42' E 018°47'7 6.8
2014-Aug-28 16:33S 34°44' E 018°55'7 6.6
2014-Aug-28 15:32S 34°45' E 019°03'6 5.9
2014-Aug-28 14:32S 34°47' E 019°10'16 5.3
2014-Aug-28 11:30S 34°50' E 019°29'19 3.6
2014-Aug-28 06:07S 34°58' E 019°51'349 9.0
2014-Aug-26 15:23S 33°55' E 026°46'2512.1
2014-Aug-26 13:21S 33°44' E 027°13'2612.5
2014-Aug-26 11:17S 33°31' E 027°40'1012.4
2014-Aug-26 10:31S 33°25' E 027°49'24311.4
2014-Aug-25 13:10S 30°22' E 030°58'6 9.6
2014-Aug-25 12:33S 30°17' E 031°01'9 8.9
2014-Aug-25 11:33S 30°09' E 031°06'8 8.1
2014-Aug-25 10:33S 30°02' E 031°11'8 7.7
2014-Aug-25 09:33S 29°56' E 031°15'7 7.0
2014-Aug-25 08:33S 29°49' E 031°18'5 5.2
2014-Aug-25 07:34S 29°44' E 031°20'4 3.6
2014-Aug-25 06:33S 29°47' E 031°17'4 3.8
2014-Aug-25 05:33S 29°50' E 031°14'2 1.8
2014-Aug-25 04:33S 29°52' E 031°14'2 2.2
2014-Aug-25 03:33S 29°53' E 031°12'1 1.1
2014-Aug-25 02:33S 29°52' E 031°12'6 6.1
2014-Aug-25 01:33S 29°46' E 031°13'2 2.5
2014-Aug-25 00:33S 29°48' E 031°13'7 6.9
2014-Aug-24 23:34S 29°46' E 031°20'7 6.9
2014-Aug-24 22:33S 29°43' E 031°27'7 7.4
2014-Aug-24 21:33S 29°40' E 031°35'7 6.7
2014-Aug-24 20:33S 29°37' E 031°42'7 6.9
2014-Aug-24 19:32S 29°33' E 031°49'7 7.0
2014-Aug-24 18:32S 29°29' E 031°55'68 6.7
2014-Aug-24 08:28S 28°40' E 032°48'  
Track history (hours):
 
Tides and Currents Weather Stations Pressure Air Temp Water Temp Dewpoint Dewpoint Depression Visibility Wind Speed Wind Dir Waves Ship Positions

Kynouria

Last reported at 2014-Aug-28 23:29 UTC. Time now 2014-Sep-23 04:17 UTC.
Position S 34°36' E 017°56'.
Warning: this ship's position is 25 days out of date.

Length 229 m; draft 9 m.

Type: Cargo ship. MMSI: 538004243.

Date/timePositionNaut miles runAvg speedWind from/ knotsBaromVisibWave heightAir tempDewpointWater temp
2014-Aug-28 23:29S 34°36' E 017°56'15 7.4
2014-Aug-28 21:28S 34°38' E 018°14'6 7.0
2014-Aug-28 20:33S 34°39' E 018°22'8 7.2
2014-Aug-28 19:30S 34°40' E 018°31'7 7.0
2014-Aug-28 18:30S 34°41' E 018°39'7 7.2
2014-Aug-28 17:33S 34°42' E 018°47'7 6.8
2014-Aug-28 16:33S 34°44' E 018°55'7 6.6
2014-Aug-28 15:32S 34°45' E 019°03'6 5.9
2014-Aug-28 14:32S 34°47' E 019°10'16 5.3
2014-Aug-28 11:30S 34°50' E 019°29'19 3.6
2014-Aug-28 06:07S 34°58' E 019°51'349 9.0
2014-Aug-26 15:23S 33°55' E 026°46'2512.1
2014-Aug-26 13:21S 33°44' E 027°13'2612.5
2014-Aug-26 11:17S 33°31' E 027°40'1012.4
2014-Aug-26 10:31S 33°25' E 027°49'24311.4
2014-Aug-25 13:10S 30°22' E 030°58'6 9.6
2014-Aug-25 12:33S 30°17' E 031°01'9 8.9
2014-Aug-25 11:33S 30°09' E 031°06'8 8.1
2014-Aug-25 10:33S 30°02' E 031°11'8 7.7
2014-Aug-25 09:33S 29°56' E 031°15'7 7.0
2014-Aug-25 08:33S 29°49' E 031°18'5 5.2
2014-Aug-25 07:34S 29°44' E 031°20'4 3.6
2014-Aug-25 06:33S 29°47' E 031°17'4 3.8
2014-Aug-25 05:33S 29°50' E 031°14'2 1.8
2014-Aug-25 04:33S 29°52' E 031°14'2 2.2
2014-Aug-25 03:33S 29°53' E 031°12'1 1.1
2014-Aug-25 02:33S 29°52' E 031°12'6 6.1
2014-Aug-25 01:33S 29°46' E 031°13'2 2.5
2014-Aug-25 00:33S 29°48' E 031°13'7 6.9
2014-Aug-24 23:34S 29°46' E 031°20'7 6.9
2014-Aug-24 22:33S 29°43' E 031°27'7 7.4
2014-Aug-24 21:33S 29°40' E 031°35'7 6.7
2014-Aug-24 20:33S 29°37' E 031°42'7 6.9
2014-Aug-24 19:32S 29°33' E 031°49'7 7.0
2014-Aug-24 18:32S 29°29' E 031°55'68 6.7
2014-Aug-24 08:28S 28°40' E 032°48'  

Dump ship's entire track history